sensor_id;sensor_type;location;lat;lon;timestamp;P1;durP1;ratioP1;P2;durP2;ratioP2
19006;SDS011;9636;47.382;8.480;2023-05-10T00:01:19;1.90;;;1.80;;
19006;SDS011;9636;47.382;8.480;2023-05-10T00:03:46;1.77;;;1.67;;
19006;SDS011;9636;47.382;8.480;2023-05-10T00:06:13;2.05;;;1.85;;
19006;SDS011;9636;47.382;8.480;2023-05-10T00:08:41;1.48;;;1.40;;
19006;SDS011;9636;47.382;8.480;2023-05-10T00:11:08;2.53;;;1.77;;
19006;SDS011;9636;47.382;8.480;2023-05-10T00:13:34;2.17;;;1.98;;
19006;SDS011;9636;47.382;8.480;2023-05-10T00:16:01;1.95;;;1.77;;
19006;SDS011;9636;47.382;8.480;2023-05-10T00:18:28;1.85;;;1.75;;
19006;SDS011;9636;47.382;8.480;2023-05-10T00:20:55;1.60;;;1.50;;
19006;SDS011;9636;47.382;8.480;2023-05-10T00:23:21;1.80;;;1.70;;
19006;SDS011;9636;47.382;8.480;2023-05-10T00:25:50;1.63;;;1.52;;
19006;SDS011;9636;47.382;8.480;2023-05-10T00:28:16;1.77;;;1.67;;
19006;SDS011;9636;47.382;8.480;2023-05-10T00:30:43;1.92;;;1.73;;
19006;SDS011;9636;47.382;8.480;2023-05-10T00:33:10;1.75;;;1.58;;
19006;SDS011;9636;47.382;8.480;2023-05-10T00:35:37;1.70;;;1.60;;
19006;SDS011;9636;47.382;8.480;2023-05-10T00:38:04;1.60;;;1.50;;
19006;SDS011;9636;47.382;8.480;2023-05-10T00:40:31;1.50;;;1.40;;
19006;SDS011;9636;47.382;8.480;2023-05-10T00:42:59;1.50;;;1.40;;
19006;SDS011;9636;47.382;8.480;2023-05-10T00:45:26;1.75;;;1.63;;
19006;SDS011;9636;47.382;8.480;2023-05-10T00:47:53;1.70;;;1.60;;
19006;SDS011;9636;47.382;8.480;2023-05-10T00:50:20;1.60;;;1.50;;
19006;SDS011;9636;47.382;8.480;2023-05-10T00:52:47;1.60;;;1.50;;
19006;SDS011;9636;47.382;8.480;2023-05-10T00:55:15;1.60;;;1.50;;
19006;SDS011;9636;47.382;8.480;2023-05-10T00:57:42;1.70;;;1.60;;
19006;SDS011;9636;47.382;8.480;2023-05-10T01:00:11;1.50;;;1.40;;
19006;SDS011;9636;47.382;8.480;2023-05-10T01:02:42;1.67;;;1.58;;
19006;SDS011;9636;47.382;8.480;2023-05-10T01:05:10;2.40;;;1.65;;
19006;SDS011;9636;47.382;8.480;2023-05-10T01:07:37;1.77;;;1.67;;
19006;SDS011;9636;47.382;8.480;2023-05-10T01:10:04;1.75;;;1.65;;
19006;SDS011;9636;47.382;8.480;2023-05-10T01:12:31;1.60;;;1.50;;
19006;SDS011;9636;47.382;8.480;2023-05-10T01:14:59;1.48;;;1.38;;
19006;SDS011;9636;47.382;8.480;2023-05-10T01:17:28;1.40;;;1.30;;
19006;SDS011;9636;47.382;8.480;2023-05-10T01:19:56;1.55;;;1.45;;
19006;SDS011;9636;47.382;8.480;2023-05-10T01:22:29;1.65;;;1.55;;
19006;SDS011;9636;47.382;8.480;2023-05-10T01:25:18;1.52;;;1.42;;
19006;SDS011;9636;47.382;8.480;2023-05-10T01:28:07;1.50;;;1.40;;
19006;SDS011;9636;47.382;8.480;2023-05-10T01:31:12;1.60;;;1.50;;
19006;SDS011;9636;47.382;8.480;2023-05-10T01:33:51;1.83;;;1.50;;
19006;SDS011;9636;47.382;8.480;2023-05-10T01:36:23;1.50;;;1.40;;
19006;SDS011;9636;47.382;8.480;2023-05-10T01:38:59;1.50;;;1.40;;
19006;SDS011;9636;47.382;8.480;2023-05-10T01:41:32;1.50;;;1.40;;
19006;SDS011;9636;47.382;8.480;2023-05-10T01:44:09;1.50;;;1.40;;
19006;SDS011;9636;47.382;8.480;2023-05-10T01:46:44;1.40;;;1.30;;
19006;SDS011;9636;47.382;8.480;2023-05-10T01:49:19;1.45;;;1.35;;
19006;SDS011;9636;47.382;8.480;2023-05-10T01:51:50;1.50;;;1.40;;
19006;SDS011;9636;47.382;8.480;2023-05-10T01:54:19;1.40;;;1.33;;
19006;SDS011;9636;47.382;8.480;2023-05-10T01:56:51;1.48;;;1.38;;
19006;SDS011;9636;47.382;8.480;2023-05-10T01:59:22;1.58;;;1.30;;
19006;SDS011;9636;47.382;8.480;2023-05-10T02:01:54;1.40;;;1.30;;
19006;SDS011;9636;47.382;8.480;2023-05-10T02:04:24;1.40;;;1.30;;
19006;SDS011;9636;47.382;8.480;2023-05-10T02:06:53;1.30;;;1.20;;
19006;SDS011;9636;47.382;8.480;2023-05-10T02:09:21;1.50;;;1.40;;
19006;SDS011;9636;47.382;8.480;2023-05-10T02:11:49;1.27;;;1.20;;
19006;SDS011;9636;47.382;8.480;2023-05-10T02:14:16;1.30;;;1.20;;
19006;SDS011;9636;47.382;8.480;2023-05-10T02:16:45;1.37;;;1.27;;
19006;SDS011;9636;47.382;8.480;2023-05-10T02:19:13;1.40;;;1.30;;
19006;SDS011;9636;47.382;8.480;2023-05-10T02:21:42;1.40;;;1.30;;
19006;SDS011;9636;47.382;8.480;2023-05-10T02:24:10;1.57;;;1.47;;
19006;SDS011;9636;47.382;8.480;2023-05-10T02:26:38;1.30;;;1.20;;
19006;SDS011;9636;47.382;8.480;2023-05-10T02:29:05;1.43;;;1.30;;
19006;SDS011;9636;47.382;8.480;2023-05-10T02:31:33;1.40;;;1.30;;
19006;SDS011;9636;47.382;8.480;2023-05-10T02:34:03;1.50;;;1.40;;
19006;SDS011;9636;47.382;8.480;2023-05-10T02:36:33;1.30;;;1.20;;
19006;SDS011;9636;47.382;8.480;2023-05-10T02:39:02;1.58;;;1.48;;
19006;SDS011;9636;47.382;8.480;2023-05-10T02:41:30;1.43;;;1.33;;
19006;SDS011;9636;47.382;8.480;2023-05-10T02:43:59;1.40;;;1.30;;
19006;SDS011;9636;47.382;8.480;2023-05-10T02:46:27;1.00;;;1.00;;
19006;SDS011;9636;47.382;8.480;2023-05-10T02:48:54;1.30;;;1.20;;
19006;SDS011;9636;47.382;8.480;2023-05-10T02:51:21;1.33;;;1.23;;
19006;SDS011;9636;47.382;8.480;2023-05-10T02:53:53;1.30;;;1.20;;
19006;SDS011;9636;47.382;8.480;2023-05-10T02:56:25;1.37;;;1.20;;
19006;SDS011;9636;47.382;8.480;2023-05-10T02:58:57;1.30;;;1.20;;
19006;SDS011;9636;47.382;8.480;2023-05-10T03:01:23;1.33;;;1.23;;
19006;SDS011;9636;47.382;8.480;2023-05-10T03:03:50;1.30;;;1.20;;
19006;SDS011;9636;47.382;8.480;2023-05-10T03:06:17;1.87;;;1.30;;
19006;SDS011;9636;47.382;8.480;2023-05-10T03:08:44;1.30;;;1.20;;
19006;SDS011;9636;47.382;8.480;2023-05-10T03:11:16;1.13;;;1.13;;
19006;SDS011;9636;47.382;8.480;2023-05-10T03:14:02;1.30;;;1.23;;
19006;SDS011;9636;47.382;8.480;2023-05-10T03:16:38;1.30;;;1.20;;
19006;SDS011;9636;47.382;8.480;2023-05-10T03:19:12;2.47;;;1.20;;
19006;SDS011;9636;47.382;8.480;2023-05-10T03:21:44;1.30;;;1.20;;
19006;SDS011;9636;47.382;8.480;2023-05-10T03:24:16;1.10;;;1.10;;
19006;SDS011;9636;47.382;8.480;2023-05-10T03:26:48;1.00;;;1.00;;
19006;SDS011;9636;47.382;8.480;2023-05-10T03:29:15;1.43;;;1.33;;
19006;SDS011;9636;47.382;8.480;2023-05-10T03:31:43;1.30;;;1.20;;
19006;SDS011;9636;47.382;8.480;2023-05-10T03:34:10;1.20;;;1.10;;
19006;SDS011;9636;47.382;8.480;2023-05-10T03:36:37;1.30;;;1.20;;
19006;SDS011;9636;47.382;8.480;2023-05-10T03:39:04;1.60;;;1.10;;
19006;SDS011;9636;47.382;8.480;2023-05-10T03:41:30;1.10;;;1.10;;
19006;SDS011;9636;47.382;8.480;2023-05-10T03:43:58;0.90;;;0.90;;
19006;SDS011;9636;47.382;8.480;2023-05-10T03:46:25;1.10;;;1.10;;
19006;SDS011;9636;47.382;8.480;2023-05-10T03:48:52;0.90;;;0.90;;
19006;SDS011;9636;47.382;8.480;2023-05-10T03:51:19;1.00;;;1.00;;
19006;SDS011;9636;47.382;8.480;2023-05-10T03:53:45;1.23;;;1.20;;
19006;SDS011;9636;47.382;8.480;2023-05-10T03:56:12;1.37;;;1.27;;
19006;SDS011;9636;47.382;8.480;2023-05-10T03:58:39;1.40;;;1.30;;
19006;SDS011;9636;47.382;8.480;2023-05-10T04:01:07;0.93;;;0.93;;
19006;SDS011;9636;47.382;8.480;2023-05-10T04:03:34;1.13;;;1.10;;
19006;SDS011;9636;47.382;8.480;2023-05-10T04:06:01;1.20;;;1.10;;
19006;SDS011;9636;47.382;8.480;2023-05-10T04:08:28;1.00;;;1.00;;
19006;SDS011;9636;47.382;8.480;2023-05-10T04:11:04;1.17;;;1.07;;
19006;SDS011;9636;47.382;8.480;2023-05-10T04:13:31;0.98;;;0.98;;
19006;SDS011;9636;47.382;8.480;2023-05-10T04:15:58;1.23;;;1.13;;
19006;SDS011;9636;47.382;8.480;2023-05-10T04:18:26;0.90;;;0.90;;
19006;SDS011;9636;47.382;8.480;2023-05-10T04:20:53;1.23;;;1.13;;
19006;SDS011;9636;47.382;8.480;2023-05-10T04:23:20;0.90;;;0.90;;
19006;SDS011;9636;47.382;8.480;2023-05-10T04:25:46;1.20;;;1.05;;
19006;SDS011;9636;47.382;8.480;2023-05-10T04:28:13;1.00;;;1.00;;
19006;SDS011;9636;47.382;8.480;2023-05-10T04:30:40;0.93;;;0.93;;
19006;SDS011;9636;47.382;8.480;2023-05-10T04:33:07;1.00;;;1.00;;
19006;SDS011;9636;47.382;8.480;2023-05-10T04:35:35;0.93;;;0.93;;
19006;SDS011;9636;47.382;8.480;2023-05-10T04:38:02;1.13;;;1.03;;
19006;SDS011;9636;47.382;8.480;2023-05-10T04:40:29;1.10;;;1.10;;
19006;SDS011;9636;47.382;8.480;2023-05-10T04:42:56;1.07;;;1.00;;
19006;SDS011;9636;47.382;8.480;2023-05-10T04:45:22;0.80;;;0.80;;
19006;SDS011;9636;47.382;8.480;2023-05-10T04:47:49;1.00;;;1.00;;
19006;SDS011;9636;47.382;8.480;2023-05-10T04:50:16;1.88;;;1.00;;
19006;SDS011;9636;47.382;8.480;2023-05-10T04:52:44;1.02;;;1.02;;
19006;SDS011;9636;47.382;8.480;2023-05-10T04:55:11;1.05;;;0.95;;
19006;SDS011;9636;47.382;8.480;2023-05-10T04:57:38;1.10;;;1.00;;
19006;SDS011;9636;47.382;8.480;2023-05-10T05:00:06;0.90;;;0.90;;
19006;SDS011;9636;47.382;8.480;2023-05-10T05:02:33;1.17;;;1.07;;
19006;SDS011;9636;47.382;8.480;2023-05-10T05:05:00;0.90;;;0.90;;
19006;SDS011;9636;47.382;8.480;2023-05-10T05:07:27;0.90;;;0.90;;
19006;SDS011;9636;47.382;8.480;2023-05-10T05:09:56;1.03;;;1.00;;
19006;SDS011;9636;47.382;8.480;2023-05-10T05:12:24;2.50;;;1.10;;
19006;SDS011;9636;47.382;8.480;2023-05-10T05:14:50;0.90;;;0.90;;
19006;SDS011;9636;47.382;8.480;2023-05-10T05:17:17;1.00;;;1.00;;
19006;SDS011;9636;47.382;8.480;2023-05-10T05:19:44;0.90;;;0.90;;
19006;SDS011;9636;47.382;8.480;2023-05-10T05:22:11;0.90;;;0.90;;
19006;SDS011;9636;47.382;8.480;2023-05-10T05:24:37;0.85;;;0.85;;
19006;SDS011;9636;47.382;8.480;2023-05-10T05:27:05;1.00;;;1.00;;
19006;SDS011;9636;47.382;8.480;2023-05-10T05:29:32;0.87;;;0.87;;
19006;SDS011;9636;47.382;8.480;2023-05-10T05:31:59;0.90;;;0.90;;
19006;SDS011;9636;47.382;8.480;2023-05-10T05:34:26;0.97;;;0.90;;
19006;SDS011;9636;47.382;8.480;2023-05-10T05:36:53;0.82;;;0.82;;
19006;SDS011;9636;47.382;8.480;2023-05-10T05:39:20;0.90;;;0.90;;
19006;SDS011;9636;47.382;8.480;2023-05-10T05:41:47;0.90;;;0.90;;
19006;SDS011;9636;47.382;8.480;2023-05-10T05:44:15;0.87;;;0.87;;
19006;SDS011;9636;47.382;8.480;2023-05-10T05:46:42;1.10;;;1.00;;
19006;SDS011;9636;47.382;8.480;2023-05-10T05:49:09;0.70;;;0.70;;
19006;SDS011;9636;47.382;8.480;2023-05-10T05:51:35;0.70;;;0.70;;
19006;SDS011;9636;47.382;8.480;2023-05-10T05:54:02;0.80;;;0.80;;
19006;SDS011;9636;47.382;8.480;2023-05-10T05:56:29;1.53;;;0.83;;
19006;SDS011;9636;47.382;8.480;2023-05-10T05:58:56;2.78;;;1.50;;
19006;SDS011;9636;47.382;8.480;2023-05-10T06:01:24;3.35;;;2.40;;
19006;SDS011;9636;47.382;8.480;2023-05-10T06:03:51;6.70;;;3.90;;
19006;SDS011;9636;47.382;8.480;2023-05-10T06:06:18;11.60;;;3.50;;
19006;SDS011;9636;47.382;8.480;2023-05-10T06:08:44;4.15;;;3.17;;
19006;SDS011;9636;47.382;8.480;2023-05-10T06:11:11;4.78;;;3.35;;
19006;SDS011;9636;47.382;8.480;2023-05-10T06:13:38;4.13;;;2.97;;
19006;SDS011;9636;47.382;8.480;2023-05-10T06:16:05;4.93;;;2.97;;
19006;SDS011;9636;47.382;8.480;2023-05-10T06:18:33;5.45;;;3.20;;
19006;SDS011;9636;47.382;8.480;2023-05-10T06:21:01;4.57;;;3.13;;
19006;SDS011;9636;47.382;8.480;2023-05-10T06:23:27;3.55;;;3.08;;
19006;SDS011;9636;47.382;8.480;2023-05-10T06:25:54;4.30;;;2.80;;
19006;SDS011;9636;47.382;8.480;2023-05-10T06:28:21;3.42;;;2.60;;
19006;SDS011;9636;47.382;8.480;2023-05-10T06:30:48;5.93;;;2.65;;
19006;SDS011;9636;47.382;8.480;2023-05-10T06:33:15;4.18;;;3.08;;
19006;SDS011;9636;47.382;8.480;2023-05-10T06:35:43;5.10;;;3.00;;
19006;SDS011;9636;47.382;8.480;2023-05-10T06:38:10;6.18;;;2.90;;
19006;SDS011;9636;47.382;8.480;2023-05-10T06:40:36;11.93;;;3.10;;
19006;SDS011;9636;47.382;8.480;2023-05-10T06:43:06;3.65;;;2.47;;
19006;SDS011;9636;47.382;8.480;2023-05-10T06:45:33;3.80;;;2.58;;
19006;SDS011;9636;47.382;8.480;2023-05-10T06:48:00;4.80;;;2.50;;
19006;SDS011;9636;47.382;8.480;2023-05-10T06:50:27;4.95;;;2.83;;
19006;SDS011;9636;47.382;8.480;2023-05-10T06:52:55;7.63;;;2.88;;
19006;SDS011;9636;47.382;8.480;2023-05-10T06:55:22;4.38;;;3.03;;
19006;SDS011;9636;47.382;8.480;2023-05-10T06:57:49;5.85;;;2.90;;
19006;SDS011;9636;47.382;8.480;2023-05-10T07:00:16;3.78;;;2.92;;
19006;SDS011;9636;47.382;8.480;2023-05-10T07:02:44;7.68;;;2.63;;
19006;SDS011;9636;47.382;8.480;2023-05-10T07:05:10;3.38;;;2.80;;
19006;SDS011;9636;47.382;8.480;2023-05-10T07:07:37;6.95;;;2.50;;
19006;SDS011;9636;47.382;8.480;2023-05-10T07:10:06;2.65;;;2.42;;
19006;SDS011;9636;47.382;8.480;2023-05-10T07:12:33;5.05;;;2.53;;
19006;SDS011;9636;47.382;8.480;2023-05-10T07:15:00;4.78;;;2.83;;
19006;SDS011;9636;47.382;8.480;2023-05-10T07:17:28;3.33;;;2.88;;
19006;SDS011;9636;47.382;8.480;2023-05-10T07:19:54;3.20;;;2.47;;
19006;SDS011;9636;47.382;8.480;2023-05-10T07:22:21;3.47;;;2.67;;
19006;SDS011;9636;47.382;8.480;2023-05-10T07:24:48;4.50;;;2.60;;
19006;SDS011;9636;47.382;8.480;2023-05-10T07:27:16;4.85;;;2.50;;
19006;SDS011;9636;47.382;8.480;2023-05-10T07:29:43;4.63;;;2.50;;
19006;SDS011;9636;47.382;8.480;2023-05-10T07:32:10;3.97;;;2.55;;
19006;SDS011;9636;47.382;8.480;2023-05-10T07:34:36;4.63;;;2.92;;
19006;SDS011;9636;47.382;8.480;2023-05-10T07:37:03;4.05;;;2.50;;
19006;SDS011;9636;47.382;8.480;2023-05-10T07:39:31;3.17;;;2.45;;
19006;SDS011;9636;47.382;8.480;2023-05-10T07:41:57;3.20;;;2.30;;
19006;SDS011;9636;47.382;8.480;2023-05-10T07:44:26;4.55;;;2.50;;
19006;SDS011;9636;47.382;8.480;2023-05-10T07:46:52;4.03;;;2.40;;
19006;SDS011;9636;47.382;8.480;2023-05-10T07:49:20;4.28;;;2.40;;
19006;SDS011;9636;47.382;8.480;2023-05-10T07:51:49;4.75;;;2.40;;
19006;SDS011;9636;47.382;8.480;2023-05-10T07:54:16;2.75;;;2.55;;
19006;SDS011;9636;47.382;8.480;2023-05-10T07:56:42;4.38;;;2.65;;
19006;SDS011;9636;47.382;8.480;2023-05-10T07:59:14;3.50;;;2.63;;
19006;SDS011;9636;47.382;8.480;2023-05-10T08:01:43;4.38;;;2.55;;
19006;SDS011;9636;47.382;8.480;2023-05-10T08:04:10;3.08;;;2.50;;
19006;SDS011;9636;47.382;8.480;2023-05-10T08:06:37;4.95;;;2.63;;
19006;SDS011;9636;47.382;8.480;2023-05-10T08:09:04;3.28;;;2.33;;
19006;SDS011;9636;47.382;8.480;2023-05-10T08:11:31;2.63;;;2.42;;
19006;SDS011;9636;47.382;8.480;2023-05-10T08:13:58;4.22;;;2.63;;
19006;SDS011;9636;47.382;8.480;2023-05-10T08:16:25;3.13;;;2.65;;
19006;SDS011;9636;47.382;8.480;2023-05-10T08:18:53;3.45;;;2.50;;
19006;SDS011;9636;47.382;8.480;2023-05-10T08:21:20;3.83;;;2.78;;
19006;SDS011;9636;47.382;8.480;2023-05-10T08:23:47;2.78;;;2.45;;
19006;SDS011;9636;47.382;8.480;2023-05-10T08:26:14;4.95;;;2.78;;
19006;SDS011;9636;47.382;8.480;2023-05-10T08:28:40;2.85;;;2.03;;
19006;SDS011;9636;47.382;8.480;2023-05-10T08:31:07;2.50;;;2.20;;
19006;SDS011;9636;47.382;8.480;2023-05-10T08:33:34;2.60;;;2.40;;
19006;SDS011;9636;47.382;8.480;2023-05-10T08:36:02;2.70;;;2.45;;
19006;SDS011;9636;47.382;8.480;2023-05-10T08:38:29;2.35;;;2.15;;
19006;SDS011;9636;47.382;8.480;2023-05-10T08:40:56;2.78;;;2.00;;
19006;SDS011;9636;47.382;8.480;2023-05-10T08:43:25;2.33;;;2.13;;
19006;SDS011;9636;47.382;8.480;2023-05-10T08:45:54;2.53;;;2.33;;
19006;SDS011;9636;47.382;8.480;2023-05-10T08:48:21;2.60;;;2.25;;
19006;SDS011;9636;47.382;8.480;2023-05-10T08:50:51;3.05;;;2.20;;
19006;SDS011;9636;47.382;8.480;2023-05-10T08:53:21;3.97;;;2.50;;
19006;SDS011;9636;47.382;8.480;2023-05-10T08:55:51;2.45;;;2.22;;
19006;SDS011;9636;47.382;8.480;2023-05-10T08:58:19;2.33;;;2.13;;
19006;SDS011;9636;47.382;8.480;2023-05-10T09:00:46;2.67;;;2.00;;
19006;SDS011;9636;47.382;8.480;2023-05-10T09:03:14;3.20;;;2.45;;
19006;SDS011;9636;47.382;8.480;2023-05-10T09:05:41;3.58;;;2.25;;
19006;SDS011;9636;47.382;8.480;2023-05-10T09:08:09;2.45;;;2.20;;
19006;SDS011;9636;47.382;8.480;2023-05-10T09:10:39;2.40;;;2.20;;
19006;SDS011;9636;47.382;8.480;2023-05-10T09:13:08;2.85;;;2.17;;
19006;SDS011;9636;47.382;8.480;2023-05-10T09:15:36;2.95;;;2.10;;
19006;SDS011;9636;47.382;8.480;2023-05-10T09:18:03;2.90;;;2.13;;
19006;SDS011;9636;47.382;8.480;2023-05-10T09:20:30;2.70;;;2.38;;
19006;SDS011;9636;47.382;8.480;2023-05-10T09:22:57;4.97;;;2.40;;
19006;SDS011;9636;47.382;8.480;2023-05-10T09:25:23;3.03;;;2.28;;
19006;SDS011;9636;47.382;8.480;2023-05-10T09:27:52;2.40;;;2.20;;
19006;SDS011;9636;47.382;8.480;2023-05-10T09:30:23;2.35;;;1.88;;
19006;SDS011;9636;47.382;8.480;2023-05-10T09:32:51;2.20;;;2.00;;
19006;SDS011;9636;47.382;8.480;2023-05-10T09:35:19;2.40;;;2.20;;
19006;SDS011;9636;47.382;8.480;2023-05-10T09:37:48;2.28;;;1.90;;
19006;SDS011;9636;47.382;8.480;2023-05-10T09:40:17;2.83;;;2.42;;
19006;SDS011;9636;47.382;8.480;2023-05-10T09:42:52;2.75;;;1.90;;
19006;SDS011;9636;47.382;8.480;2023-05-10T09:45:20;3.03;;;2.13;;
19006;SDS011;9636;47.382;8.480;2023-05-10T09:47:47;2.88;;;1.90;;
19006;SDS011;9636;47.382;8.480;2023-05-10T09:50:14;2.30;;;2.10;;
19006;SDS011;9636;47.382;8.480;2023-05-10T09:52:48;2.05;;;1.80;;
19006;SDS011;9636;47.382;8.480;2023-05-10T09:55:16;1.98;;;1.88;;
19006;SDS011;9636;47.382;8.480;2023-05-10T09:57:45;2.30;;;2.10;;
19006;SDS011;9636;47.382;8.480;2023-05-10T10:00:18;2.78;;;2.13;;
19006;SDS011;9636;47.382;8.480;2023-05-10T10:02:46;2.40;;;2.20;;
19006;SDS011;9636;47.382;8.480;2023-05-10T10:05:13;3.25;;;1.90;;
19006;SDS011;9636;47.382;8.480;2023-05-10T10:07:41;2.25;;;2.05;;
19006;SDS011;9636;47.382;8.480;2023-05-10T10:10:08;2.03;;;1.83;;
19006;SDS011;9636;47.382;8.480;2023-05-10T10:15:07;2.38;;;1.90;;
19006;SDS011;9636;47.382;8.480;2023-05-10T10:17:36;3.20;;;2.05;;
19006;SDS011;9636;47.382;8.480;2023-05-10T10:20:05;2.05;;;1.92;;
19006;SDS011;9636;47.382;8.480;2023-05-10T10:22:33;2.30;;;2.10;;
19006;SDS011;9636;47.382;8.480;2023-05-10T10:25:00;2.47;;;1.95;;
19006;SDS011;9636;47.382;8.480;2023-05-10T10:27:28;2.03;;;1.83;;
19006;SDS011;9636;47.382;8.480;2023-05-10T10:30:08;1.98;;;1.80;;
19006;SDS011;9636;47.382;8.480;2023-05-10T10:32:51;1.90;;;1.75;;
19006;SDS011;9636;47.382;8.480;2023-05-10T10:35:28;2.60;;;2.10;;
19006;SDS011;9636;47.382;8.480;2023-05-10T10:37:56;1.83;;;1.73;;
19006;SDS011;9636;47.382;8.480;2023-05-10T10:40:24;2.15;;;1.92;;
19006;SDS011;9636;47.382;8.480;2023-05-10T10:42:52;1.88;;;1.70;;
19006;SDS011;9636;47.382;8.480;2023-05-10T10:45:19;1.95;;;1.70;;
19006;SDS011;9636;47.382;8.480;2023-05-10T10:47:48;1.92;;;1.70;;
19006;SDS011;9636;47.382;8.480;2023-05-10T10:50:19;1.83;;;1.70;;
19006;SDS011;9636;47.382;8.480;2023-05-10T10:52:46;1.90;;;1.80;;
19006;SDS011;9636;47.382;8.480;2023-05-10T10:55:14;2.70;;;1.90;;
19006;SDS011;9636;47.382;8.480;2023-05-10T10:57:45;3.10;;;1.70;;
19006;SDS011;9636;47.382;8.480;2023-05-10T11:00:20;2.03;;;1.88;;
19006;SDS011;9636;47.382;8.480;2023-05-10T11:02:51;2.03;;;1.80;;
19006;SDS011;9636;47.382;8.480;2023-05-10T11:08:11;2.00;;;1.80;;
19006;SDS011;9636;47.382;8.480;2023-05-10T11:10:48;2.00;;;1.83;;
19006;SDS011;9636;47.382;8.480;2023-05-10T11:13:34;2.13;;;1.80;;
19006;SDS011;9636;47.382;8.480;2023-05-10T11:16:15;2.03;;;1.83;;
19006;SDS011;9636;47.382;8.480;2023-05-10T11:18:56;2.17;;;1.98;;
19006;SDS011;9636;47.382;8.480;2023-05-10T11:21:26;1.83;;;1.63;;
19006;SDS011;9636;47.382;8.480;2023-05-10T11:23:53;2.00;;;1.80;;
19006;SDS011;9636;47.382;8.480;2023-05-10T11:26:22;2.00;;;1.80;;
19006;SDS011;9636;47.382;8.480;2023-05-10T11:28:51;2.58;;;1.75;;
19006;SDS011;9636;47.382;8.480;2023-05-10T11:31:20;1.90;;;1.70;;
19006;SDS011;9636;47.382;8.480;2023-05-10T11:33:48;1.70;;;1.60;;
19006;SDS011;9636;47.382;8.480;2023-05-10T11:36:18;1.80;;;1.70;;
19006;SDS011;9636;47.382;8.480;2023-05-10T11:38:46;2.85;;;1.98;;
19006;SDS011;9636;47.382;8.480;2023-05-10T11:41:14;1.60;;;1.50;;
19006;SDS011;9636;47.382;8.480;2023-05-10T11:43:43;1.80;;;1.70;;
19006;SDS011;9636;47.382;8.480;2023-05-10T11:46:13;2.33;;;1.92;;
19006;SDS011;9636;47.382;8.480;2023-05-10T11:48:41;1.65;;;1.45;;
19006;SDS011;9636;47.382;8.480;2023-05-10T11:51:09;2.22;;;1.88;;
19006;SDS011;9636;47.382;8.480;2023-05-10T11:53:38;1.90;;;1.70;;
19006;SDS011;9636;47.382;8.480;2023-05-10T11:56:06;2.00;;;1.80;;
19006;SDS011;9636;47.382;8.480;2023-05-10T11:58:34;1.92;;;1.70;;
19006;SDS011;9636;47.382;8.480;2023-05-10T12:01:02;2.15;;;1.95;;
19006;SDS011;9636;47.382;8.480;2023-05-10T12:03:29;1.83;;;1.55;;
19006;SDS011;9636;47.382;8.480;2023-05-10T12:05:57;1.63;;;1.50;;
19006;SDS011;9636;47.382;8.480;2023-05-10T12:08:25;1.80;;;1.70;;
19006;SDS011;9636;47.382;8.480;2023-05-10T12:11:03;1.60;;;1.50;;
19006;SDS011;9636;47.382;8.480;2023-05-10T12:13:31;1.83;;;1.65;;
19006;SDS011;9636;47.382;8.480;2023-05-10T12:15:58;1.95;;;1.77;;
19006;SDS011;9636;47.382;8.480;2023-05-10T12:18:26;1.63;;;1.52;;
19006;SDS011;9636;47.382;8.480;2023-05-10T12:20:52;1.80;;;1.70;;
19006;SDS011;9636;47.382;8.480;2023-05-10T12:23:20;2.03;;;1.83;;
19006;SDS011;9636;47.382;8.480;2023-05-10T12:25:46;1.77;;;1.60;;
19006;SDS011;9636;47.382;8.480;2023-05-10T12:28:15;1.60;;;1.50;;
19006;SDS011;9636;47.382;8.480;2023-05-10T12:30:45;1.80;;;1.70;;
19006;SDS011;9636;47.382;8.480;2023-05-10T12:33:13;1.58;;;1.48;;
19006;SDS011;9636;47.382;8.480;2023-05-10T12:35:45;1.90;;;1.80;;
19006;SDS011;9636;47.382;8.480;2023-05-10T12:38:24;2.00;;;1.80;;
19006;SDS011;9636;47.382;8.480;2023-05-10T12:40:53;1.75;;;1.65;;
19006;SDS011;9636;47.382;8.480;2023-05-10T12:43:22;1.60;;;1.50;;
19006;SDS011;9636;47.382;8.480;2023-05-10T12:45:49;1.83;;;1.73;;
19006;SDS011;9636;47.382;8.480;2023-05-10T12:48:15;1.58;;;1.48;;
19006;SDS011;9636;47.382;8.480;2023-05-10T12:50:42;1.70;;;1.60;;
19006;SDS011;9636;47.382;8.480;2023-05-10T12:53:09;2.60;;;1.75;;
19006;SDS011;9636;47.382;8.480;2023-05-10T12:55:36;1.92;;;1.55;;
19006;SDS011;9636;47.382;8.480;2023-05-10T12:58:03;1.50;;;1.40;;
19006;SDS011;9636;47.382;8.480;2023-05-10T13:00:31;1.58;;;1.48;;
19006;SDS011;9636;47.382;8.480;2023-05-10T13:02:57;1.77;;;1.63;;
19006;SDS011;9636;47.382;8.480;2023-05-10T13:05:24;2.60;;;1.50;;
19006;SDS011;9636;47.382;8.480;2023-05-10T13:07:51;1.45;;;1.35;;
19006;SDS011;9636;47.382;8.480;2023-05-10T13:10:18;1.40;;;1.30;;
19006;SDS011;9636;47.382;8.480;2023-05-10T13:12:44;1.73;;;1.63;;
19006;SDS011;9636;47.382;8.480;2023-05-10T13:15:11;2.38;;;1.63;;
19006;SDS011;9636;47.382;8.480;2023-05-10T13:17:40;1.70;;;1.50;;
19006;SDS011;9636;47.382;8.480;2023-05-10T13:20:07;1.48;;;1.38;;
19006;SDS011;9636;47.382;8.480;2023-05-10T13:22:35;1.73;;;1.63;;
19006;SDS011;9636;47.382;8.480;2023-05-10T13:25:02;1.60;;;1.50;;
19006;SDS011;9636;47.382;8.480;2023-05-10T13:27:29;1.83;;;1.45;;
19006;SDS011;9636;47.382;8.480;2023-05-10T13:29:56;1.67;;;1.58;;
19006;SDS011;9636;47.382;8.480;2023-05-10T13:32:24;1.42;;;1.38;;
19006;SDS011;9636;47.382;8.480;2023-05-10T13:34:52;1.40;;;1.30;;
19006;SDS011;9636;47.382;8.480;2023-05-10T13:37:19;1.45;;;1.35;;
19006;SDS011;9636;47.382;8.480;2023-05-10T13:39:46;1.50;;;1.40;;
19006;SDS011;9636;47.382;8.480;2023-05-10T13:42:13;1.50;;;1.40;;
19006;SDS011;9636;47.382;8.480;2023-05-10T13:44:40;2.58;;;1.70;;
19006;SDS011;9636;47.382;8.480;2023-05-10T13:47:07;1.52;;;1.42;;
19006;SDS011;9636;47.382;8.480;2023-05-10T13:49:33;1.88;;;1.75;;
19006;SDS011;9636;47.382;8.480;2023-05-10T13:52:02;1.50;;;1.40;;
19006;SDS011;9636;47.382;8.480;2023-05-10T13:54:31;1.40;;;1.30;;
19006;SDS011;9636;47.382;8.480;2023-05-10T13:56:58;1.65;;;1.55;;
19006;SDS011;9636;47.382;8.480;2023-05-10T13:59:25;1.55;;;1.45;;
19006;SDS011;9636;47.382;8.480;2023-05-10T14:01:52;1.60;;;1.50;;
19006;SDS011;9636;47.382;8.480;2023-05-10T14:04:19;1.40;;;1.30;;
19006;SDS011;9636;47.382;8.480;2023-05-10T14:06:46;1.60;;;1.50;;
19006;SDS011;9636;47.382;8.480;2023-05-10T14:09:14;1.50;;;1.40;;
19006;SDS011;9636;47.382;8.480;2023-05-10T14:11:41;1.58;;;1.48;;
19006;SDS011;9636;47.382;8.480;2023-05-10T14:14:09;1.48;;;1.38;;
19006;SDS011;9636;47.382;8.480;2023-05-10T14:16:37;1.65;;;1.55;;
19006;SDS011;9636;47.382;8.480;2023-05-10T14:19:04;1.38;;;1.27;;
19006;SDS011;9636;47.382;8.480;2023-05-10T14:21:31;1.50;;;1.40;;
19006;SDS011;9636;47.382;8.480;2023-05-10T14:23:58;1.52;;;1.42;;
19006;SDS011;9636;47.382;8.480;2023-05-10T14:26:26;1.70;;;1.60;;
19006;SDS011;9636;47.382;8.480;2023-05-10T14:28:53;1.60;;;1.40;;
19006;SDS011;9636;47.382;8.480;2023-05-10T14:31:20;1.40;;;1.30;;
19006;SDS011;9636;47.382;8.480;2023-05-10T14:33:49;1.55;;;1.45;;
19006;SDS011;9636;47.382;8.480;2023-05-10T14:36:16;1.52;;;1.40;;
19006;SDS011;9636;47.382;8.480;2023-05-10T14:38:43;2.15;;;1.42;;
19006;SDS011;9636;47.382;8.480;2023-05-10T14:41:10;1.63;;;1.40;;
19006;SDS011;9636;47.382;8.480;2023-05-10T14:43:40;1.58;;;1.48;;
19006;SDS011;9636;47.382;8.480;2023-05-10T14:46:13;2.63;;;1.75;;
19006;SDS011;9636;47.382;8.480;2023-05-10T14:49:00;1.45;;;1.35;;
19006;SDS011;9636;47.382;8.480;2023-05-10T14:51:34;1.73;;;1.23;;
19006;SDS011;9636;47.382;8.480;2023-05-10T14:54:02;1.65;;;1.30;;
19006;SDS011;9636;47.382;8.480;2023-05-10T14:56:29;1.40;;;1.30;;
19006;SDS011;9636;47.382;8.480;2023-05-10T14:58:57;1.60;;;1.50;;
19006;SDS011;9636;47.382;8.480;2023-05-10T15:01:25;1.48;;;1.38;;
19006;SDS011;9636;47.382;8.480;2023-05-10T15:03:52;1.40;;;1.30;;
19006;SDS011;9636;47.382;8.480;2023-05-10T15:06:22;1.52;;;1.38;;
19006;SDS011;9636;47.382;8.480;2023-05-10T15:08:50;1.27;;;1.15;;
19006;SDS011;9636;47.382;8.480;2023-05-10T15:11:23;1.30;;;1.20;;
19006;SDS011;9636;47.382;8.480;2023-05-10T15:13:50;1.30;;;1.20;;